sensor_id;sensor_type;location;lat;lon;timestamp;temperature;humidity
7998;DHT22;4044;49.814;7.828;2023-07-28T00:00:57;17.50;99.90
7998;DHT22;4044;49.814;7.828;2023-07-28T00:03:22;17.40;99.90
7998;DHT22;4044;49.814;7.828;2023-07-28T00:05:48;17.50;99.90
7998;DHT22;4044;49.814;7.828;2023-07-28T00:08:14;17.50;99.90
7998;DHT22;4044;49.814;7.828;2023-07-28T00:10:43;17.50;99.90
7998;DHT22;4044;49.814;7.828;2023-07-28T00:13:09;17.50;99.90
7998;DHT22;4044;49.814;7.828;2023-07-28T00:15:35;17.40;99.90
7998;DHT22;4044;49.814;7.828;2023-07-28T00:18:00;17.30;99.90
7998;DHT22;4044;49.814;7.828;2023-07-28T00:20:27;17.30;99.90
7998;DHT22;4044;49.814;7.828;2023-07-28T00:22:53;17.40;99.90
7998;DHT22;4044;49.814;7.828;2023-07-28T00:25:18;17.50;99.90
7998;DHT22;4044;49.814;7.828;2023-07-28T00:27:44;17.40;99.90
7998;DHT22;4044;49.814;7.828;2023-07-28T00:30:10;17.50;99.90
7998;DHT22;4044;49.814;7.828;2023-07-28T00:32:36;17.50;99.90
7998;DHT22;4044;49.814;7.828;2023-07-28T00:35:02;17.50;99.90
7998;DHT22;4044;49.814;7.828;2023-07-28T00:37:28;17.60;99.90
7998;DHT22;4044;49.814;7.828;2023-07-28T00:39:54;17.50;99.90
7998;DHT22;4044;49.814;7.828;2023-07-28T00:42:19;17.60;99.90
7998;DHT22;4044;49.814;7.828;2023-07-28T00:44:45;17.70;99.90
7998;DHT22;4044;49.814;7.828;2023-07-28T00:47:11;17.70;99.90
7998;DHT22;4044;49.814;7.828;2023-07-28T00:49:38;17.60;99.90
7998;DHT22;4044;49.814;7.828;2023-07-28T00:52:07;17.60;99.90
7998;DHT22;4044;49.814;7.828;2023-07-28T00:54:33;17.70;99.90
7998;DHT22;4044;49.814;7.828;2023-07-28T00:57:00;17.70;99.90
7998;DHT22;4044;49.814;7.828;2023-07-28T00:59:26;17.60;99.90
7998;DHT22;4044;49.814;7.828;2023-07-28T01:01:52;17.60;99.90
7998;DHT22;4044;49.814;7.828;2023-07-28T01:04:18;17.60;99.90
7998;DHT22;4044;49.814;7.828;2023-07-28T01:06:57;17.70;99.90
7998;DHT22;4044;49.814;7.828;2023-07-28T01:09:32;17.50;99.90
7998;DHT22;4044;49.814;7.828;2023-07-28T01:11:59;17.50;99.90
7998;DHT22;4044;49.814;7.828;2023-07-28T01:14:26;17.60;99.90
7998;DHT22;4044;49.814;7.828;2023-07-28T01:16:52;17.60;99.90
7998;DHT22;4044;49.814;7.828;2023-07-28T01:19:20;17.60;99.90
7998;DHT22;4044;49.814;7.828;2023-07-28T01:21:54;17.60;99.90
7998;DHT22;4044;49.814;7.828;2023-07-28T01:24:33;17.70;99.90
7998;DHT22;4044;49.814;7.828;2023-07-28T01:27:03;17.70;99.90
7998;DHT22;4044;49.814;7.828;2023-07-28T01:29:29;17.70;99.90
7998;DHT22;4044;49.814;7.828;2023-07-28T01:31:54;17.80;99.90
7998;DHT22;4044;49.814;7.828;2023-07-28T01:34:24;17.80;99.90
7998;DHT22;4044;49.814;7.828;2023-07-28T01:36:49;17.80;99.90
7998;DHT22;4044;49.814;7.828;2023-07-28T01:39:15;17.70;99.90
7998;DHT22;4044;49.814;7.828;2023-07-28T01:41:40;17.80;99.90
7998;DHT22;4044;49.814;7.828;2023-07-28T01:44:09;17.70;99.90
7998;DHT22;4044;49.814;7.828;2023-07-28T01:46:34;17.80;99.90
7998;DHT22;4044;49.814;7.828;2023-07-28T01:49:00;17.80;99.90
7998;DHT22;4044;49.814;7.828;2023-07-28T01:51:25;17.80;99.90
7998;DHT22;4044;49.814;7.828;2023-07-28T01:53:51;17.80;99.90
7998;DHT22;4044;49.814;7.828;2023-07-28T01:56:16;17.80;99.90
7998;DHT22;4044;49.814;7.828;2023-07-28T01:58:42;17.80;99.90
7998;DHT22;4044;49.814;7.828;2023-07-28T02:01:07;17.80;99.90
7998;DHT22;4044;49.814;7.828;2023-07-28T02:03:33;17.80;99.90
7998;DHT22;4044;49.814;7.828;2023-07-28T02:05:58;17.80;99.90
7998;DHT22;4044;49.814;7.828;2023-07-28T02:08:24;17.90;99.90
7998;DHT22;4044;49.814;7.828;2023-07-28T02:10:49;17.70;99.90
7998;DHT22;4044;49.814;7.828;2023-07-28T02:13:15;17.80;99.90
7998;DHT22;4044;49.814;7.828;2023-07-28T02:15:40;17.70;99.90
7998;DHT22;4044;49.814;7.828;2023-07-28T02:18:06;17.80;99.90
7998;DHT22;4044;49.814;7.828;2023-07-28T02:20:31;17.60;99.90
7998;DHT22;4044;49.814;7.828;2023-07-28T02:22:58;17.70;99.90
7998;DHT22;4044;49.814;7.828;2023-07-28T02:25:24;17.70;99.90
7998;DHT22;4044;49.814;7.828;2023-07-28T02:27:50;17.70;99.90
7998;DHT22;4044;49.814;7.828;2023-07-28T02:30:16;17.70;99.90
7998;DHT22;4044;49.814;7.828;2023-07-28T02:32:42;17.70;99.90
7998;DHT22;4044;49.814;7.828;2023-07-28T02:35:08;17.70;99.90
7998;DHT22;4044;49.814;7.828;2023-07-28T02:37:34;17.70;99.90
7998;DHT22;4044;49.814;7.828;2023-07-28T02:39:59;17.70;99.90
7998;DHT22;4044;49.814;7.828;2023-07-28T02:42:25;17.70;99.90
7998;DHT22;4044;49.814;7.828;2023-07-28T02:44:51;17.70;99.90
7998;DHT22;4044;49.814;7.828;2023-07-28T02:47:16;17.70;99.90
7998;DHT22;4044;49.814;7.828;2023-07-28T02:49:42;17.80;99.90
7998;DHT22;4044;49.814;7.828;2023-07-28T02:52:08;17.70;99.90
7998;DHT22;4044;49.814;7.828;2023-07-28T02:54:34;17.70;99.90
7998;DHT22;4044;49.814;7.828;2023-07-28T02:56:59;17.70;99.90
7998;DHT22;4044;49.814;7.828;2023-07-28T02:59:25;17.70;99.90
7998;DHT22;4044;49.814;7.828;2023-07-28T03:01:50;17.70;99.90
7998;DHT22;4044;49.814;7.828;2023-07-28T03:04:19;17.80;99.90
7998;DHT22;4044;49.814;7.828;2023-07-28T03:06:48;17.70;99.90
7998;DHT22;4044;49.814;7.828;2023-07-28T03:09:13;17.70;99.90
7998;DHT22;4044;49.814;7.828;2023-07-28T03:11:39;17.70;99.90
7998;DHT22;4044;49.814;7.828;2023-07-28T03:14:04;17.70;99.90
7998;DHT22;4044;49.814;7.828;2023-07-28T03:16:30;17.70;99.90
7998;DHT22;4044;49.814;7.828;2023-07-28T03:18:55;17.70;99.90
7998;DHT22;4044;49.814;7.828;2023-07-28T03:21:21;17.70;99.90
7998;DHT22;4044;49.814;7.828;2023-07-28T03:23:46;17.70;99.90
7998;DHT22;4044;49.814;7.828;2023-07-28T03:26:12;17.70;99.90
7998;DHT22;4044;49.814;7.828;2023-07-28T03:28:37;17.70;99.90
7998;DHT22;4044;49.814;7.828;2023-07-28T03:31:03;17.70;99.90
7998;DHT22;4044;49.814;7.828;2023-07-28T03:33:28;17.70;99.90
7998;DHT22;4044;49.814;7.828;2023-07-28T03:35:54;17.70;99.90
7998;DHT22;4044;49.814;7.828;2023-07-28T03:38:19;17.60;99.90
7998;DHT22;4044;49.814;7.828;2023-07-28T03:40:45;17.60;99.90
7998;DHT22;4044;49.814;7.828;2023-07-28T03:43:10;17.60;99.90
7998;DHT22;4044;49.814;7.828;2023-07-28T03:45:36;17.60;99.90
7998;DHT22;4044;49.814;7.828;2023-07-28T03:48:02;17.60;99.90
7998;DHT22;4044;49.814;7.828;2023-07-28T03:50:27;17.60;99.90
7998;DHT22;4044;49.814;7.828;2023-07-28T03:52:53;17.60;99.90
7998;DHT22;4044;49.814;7.828;2023-07-28T03:55:19;17.60;99.90
7998;DHT22;4044;49.814;7.828;2023-07-28T03:57:44;17.70;99.90
7998;DHT22;4044;49.814;7.828;2023-07-28T04:00:10;17.70;99.90
7998;DHT22;4044;49.814;7.828;2023-07-28T04:02:36;17.70;99.90
7998;DHT22;4044;49.814;7.828;2023-07-28T04:05:02;17.70;99.90
7998;DHT22;4044;49.814;7.828;2023-07-28T04:07:27;17.70;99.90
7998;DHT22;4044;49.814;7.828;2023-07-28T04:09:53;17.80;99.90
7998;DHT22;4044;49.814;7.828;2023-07-28T04:12:18;17.80;99.90
7998;DHT22;4044;49.814;7.828;2023-07-28T04:14:44;17.80;99.90
7998;DHT22;4044;49.814;7.828;2023-07-28T04:17:09;17.80;99.90
7998;DHT22;4044;49.814;7.828;2023-07-28T04:19:35;17.90;99.90
7998;DHT22;4044;49.814;7.828;2023-07-28T04:22:00;17.90;99.90
7998;DHT22;4044;49.814;7.828;2023-07-28T04:24:26;18.00;99.90
7998;DHT22;4044;49.814;7.828;2023-07-28T04:26:53;18.10;99.90
7998;DHT22;4044;49.814;7.828;2023-07-28T04:29:18;18.10;99.90
7998;DHT22;4044;49.814;7.828;2023-07-28T04:31:44;18.10;99.90
7998;DHT22;4044;49.814;7.828;2023-07-28T04:34:09;18.20;99.90
7998;DHT22;4044;49.814;7.828;2023-07-28T04:36:35;18.20;99.90
7998;DHT22;4044;49.814;7.828;2023-07-28T04:39:00;18.20;99.90
7998;DHT22;4044;49.814;7.828;2023-07-28T04:41:26;18.20;99.90
7998;DHT22;4044;49.814;7.828;2023-07-28T04:43:51;18.30;99.90
7998;DHT22;4044;49.814;7.828;2023-07-28T04:46:17;18.40;99.90
7998;DHT22;4044;49.814;7.828;2023-07-28T04:48:42;18.50;99.90
7998;DHT22;4044;49.814;7.828;2023-07-28T04:51:08;18.50;99.90
7998;DHT22;4044;49.814;7.828;2023-07-28T04:53:34;18.60;99.90
7998;DHT22;4044;49.814;7.828;2023-07-28T04:55:59;18.60;99.90
7998;DHT22;4044;49.814;7.828;2023-07-28T04:58:25;18.70;99.90
7998;DHT22;4044;49.814;7.828;2023-07-28T05:00:50;18.70;99.90
7998;DHT22;4044;49.814;7.828;2023-07-28T05:03:16;18.80;99.90
7998;DHT22;4044;49.814;7.828;2023-07-28T05:05:45;18.80;99.90
7998;DHT22;4044;49.814;7.828;2023-07-28T05:08:11;18.90;99.90
7998;DHT22;4044;49.814;7.828;2023-07-28T05:10:37;18.90;99.90
7998;DHT22;4044;49.814;7.828;2023-07-28T05:13:02;18.90;99.90
7998;DHT22;4044;49.814;7.828;2023-07-28T05:15:30;18.90;99.90
7998;DHT22;4044;49.814;7.828;2023-07-28T05:17:56;19.00;99.90
7998;DHT22;4044;49.814;7.828;2023-07-28T05:20:21;19.00;99.90
7998;DHT22;4044;49.814;7.828;2023-07-28T05:22:47;19.10;99.90
7998;DHT22;4044;49.814;7.828;2023-07-28T05:25:13;19.10;99.90
7998;DHT22;4044;49.814;7.828;2023-07-28T05:27:39;19.10;99.90
7998;DHT22;4044;49.814;7.828;2023-07-28T05:30:05;19.10;99.90
7998;DHT22;4044;49.814;7.828;2023-07-28T05:32:31;19.10;99.90
7998;DHT22;4044;49.814;7.828;2023-07-28T05:34:57;19.10;99.90
7998;DHT22;4044;49.814;7.828;2023-07-28T05:37:22;19.10;99.90
7998;DHT22;4044;49.814;7.828;2023-07-28T05:39:48;19.20;99.90
7998;DHT22;4044;49.814;7.828;2023-07-28T05:42:13;19.30;99.90
7998;DHT22;4044;49.814;7.828;2023-07-28T05:44:39;19.30;99.90
7998;DHT22;4044;49.814;7.828;2023-07-28T05:47:04;19.40;99.90
7998;DHT22;4044;49.814;7.828;2023-07-28T05:49:30;19.30;99.90
7998;DHT22;4044;49.814;7.828;2023-07-28T05:51:55;19.30;99.90
7998;DHT22;4044;49.814;7.828;2023-07-28T05:54:21;19.30;99.90
7998;DHT22;4044;49.814;7.828;2023-07-28T05:56:47;19.30;99.90
7998;DHT22;4044;49.814;7.828;2023-07-28T05:59:12;19.40;99.90
7998;DHT22;4044;49.814;7.828;2023-07-28T06:01:38;19.50;99.90
7998;DHT22;4044;49.814;7.828;2023-07-28T06:04:03;19.80;99.90
7998;DHT22;4044;49.814;7.828;2023-07-28T06:06:29;19.70;99.90
7998;DHT22;4044;49.814;7.828;2023-07-28T06:08:54;19.80;99.90
7998;DHT22;4044;49.814;7.828;2023-07-28T06:11:20;19.70;99.90
7998;DHT22;4044;49.814;7.828;2023-07-28T06:13:47;19.80;99.90
7998;DHT22;4044;49.814;7.828;2023-07-28T06:16:15;19.70;99.90
7998;DHT22;4044;49.814;7.828;2023-07-28T06:18:41;19.70;99.90
7998;DHT22;4044;49.814;7.828;2023-07-28T06:21:06;19.60;99.90
7998;DHT22;4044;49.814;7.828;2023-07-28T06:23:32;19.60;99.90
7998;DHT22;4044;49.814;7.828;2023-07-28T06:25:57;19.80;99.90
7998;DHT22;4044;49.814;7.828;2023-07-28T06:28:23;19.90;99.90
7998;DHT22;4044;49.814;7.828;2023-07-28T06:30:55;19.90;99.90
7998;DHT22;4044;49.814;7.828;2023-07-28T06:33:21;19.70;99.90
7998;DHT22;4044;49.814;7.828;2023-07-28T06:35:47;19.70;99.90
7998;DHT22;4044;49.814;7.828;2023-07-28T06:38:12;19.70;99.90
7998;DHT22;4044;49.814;7.828;2023-07-28T06:40:38;19.70;99.90
7998;DHT22;4044;49.814;7.828;2023-07-28T06:43:04;19.70;99.90
7998;DHT22;4044;49.814;7.828;2023-07-28T06:45:29;19.60;99.90
7998;DHT22;4044;49.814;7.828;2023-07-28T06:47:55;19.60;99.90
7998;DHT22;4044;49.814;7.828;2023-07-28T06:50:20;19.50;99.90
7998;DHT22;4044;49.814;7.828;2023-07-28T06:52:46;19.60;99.90
7998;DHT22;4044;49.814;7.828;2023-07-28T06:55:14;19.70;99.90
7998;DHT22;4044;49.814;7.828;2023-07-28T06:57:39;19.70;99.90
7998;DHT22;4044;49.814;7.828;2023-07-28T07:00:06;19.90;99.90
7998;DHT22;4044;49.814;7.828;2023-07-28T07:02:32;20.10;99.90
7998;DHT22;4044;49.814;7.828;2023-07-28T07:04:58;20.40;99.90
7998;DHT22;4044;49.814;7.828;2023-07-28T07:07:23;20.70;99.90
7998;DHT22;4044;49.814;7.828;2023-07-28T07:09:51;20.80;99.90
7998;DHT22;4044;49.814;7.828;2023-07-28T07:12:16;20.90;99.90
7998;DHT22;4044;49.814;7.828;2023-07-28T07:14:42;21.10;99.90
7998;DHT22;4044;49.814;7.828;2023-07-28T07:17:08;21.30;99.90
7998;DHT22;4044;49.814;7.828;2023-07-28T07:19:33;21.20;99.90
7998;DHT22;4044;49.814;7.828;2023-07-28T07:21:59;21.20;99.90
7998;DHT22;4044;49.814;7.828;2023-07-28T07:24:24;21.10;99.90
7998;DHT22;4044;49.814;7.828;2023-07-28T07:26:50;21.00;99.90
7998;DHT22;4044;49.814;7.828;2023-07-28T07:29:16;21.00;99.90
7998;DHT22;4044;49.814;7.828;2023-07-28T07:31:41;21.00;99.90
7998;DHT22;4044;49.814;7.828;2023-07-28T07:34:07;20.90;99.90
7998;DHT22;4044;49.814;7.828;2023-07-28T07:36:32;20.90;99.90
7998;DHT22;4044;49.814;7.828;2023-07-28T07:38:58;20.80;99.90
7998;DHT22;4044;49.814;7.828;2023-07-28T07:41:24;20.90;99.90
7998;DHT22;4044;49.814;7.828;2023-07-28T07:43:53;20.90;99.90
7998;DHT22;4044;49.814;7.828;2023-07-28T07:46:19;21.10;99.90
7998;DHT22;4044;49.814;7.828;2023-07-28T07:48:45;21.20;99.90
7998;DHT22;4044;49.814;7.828;2023-07-28T07:51:11;21.20;99.90
7998;DHT22;4044;49.814;7.828;2023-07-28T07:53:37;21.30;99.90
7998;DHT22;4044;49.814;7.828;2023-07-28T07:56:03;21.50;99.90
7998;DHT22;4044;49.814;7.828;2023-07-28T07:58:29;21.60;99.90
7998;DHT22;4044;49.814;7.828;2023-07-28T08:00:55;21.70;99.90
7998;DHT22;4044;49.814;7.828;2023-07-28T08:03:21;21.90;99.90
7998;DHT22;4044;49.814;7.828;2023-07-28T08:05:47;21.80;99.90
7998;DHT22;4044;49.814;7.828;2023-07-28T08:08:13;21.70;99.90
7998;DHT22;4044;49.814;7.828;2023-07-28T08:10:45;21.70;99.90
7998;DHT22;4044;49.814;7.828;2023-07-28T08:13:11;21.90;99.90
7998;DHT22;4044;49.814;7.828;2023-07-28T08:15:37;22.00;99.90
7998;DHT22;4044;49.814;7.828;2023-07-28T08:18:02;22.00;99.90
7998;DHT22;4044;49.814;7.828;2023-07-28T08:20:28;21.90;99.90
7998;DHT22;4044;49.814;7.828;2023-07-28T08:22:53;22.00;99.90
7998;DHT22;4044;49.814;7.828;2023-07-28T08:25:19;22.00;99.90
7998;DHT22;4044;49.814;7.828;2023-07-28T08:27:45;22.20;99.90
7998;DHT22;4044;49.814;7.828;2023-07-28T08:30:10;22.00;99.90
7998;DHT22;4044;49.814;7.828;2023-07-28T08:32:36;22.00;99.90
7998;DHT22;4044;49.814;7.828;2023-07-28T08:35:02;22.10;99.90
7998;DHT22;4044;49.814;7.828;2023-07-28T08:37:28;22.30;99.90
7998;DHT22;4044;49.814;7.828;2023-07-28T08:39:54;22.30;99.90
7998;DHT22;4044;49.814;7.828;2023-07-28T08:42:21;22.30;99.90
7998;DHT22;4044;49.814;7.828;2023-07-28T08:44:48;22.30;99.90
7998;DHT22;4044;49.814;7.828;2023-07-28T08:47:14;22.40;99.90
7998;DHT22;4044;49.814;7.828;2023-07-28T08:49:40;22.50;99.90
7998;DHT22;4044;49.814;7.828;2023-07-28T08:52:07;22.80;99.90
7998;DHT22;4044;49.814;7.828;2023-07-28T08:54:32;22.70;99.90
7998;DHT22;4044;49.814;7.828;2023-07-28T08:56:58;22.90;99.90
7998;DHT22;4044;49.814;7.828;2023-07-28T08:59:27;23.10;99.90
7998;DHT22;4044;49.814;7.828;2023-07-28T09:01:55;23.20;99.90
7998;DHT22;4044;49.814;7.828;2023-07-28T09:04:21;23.10;99.90
7998;DHT22;4044;49.814;7.828;2023-07-28T09:06:48;23.50;99.90
7998;DHT22;4044;49.814;7.828;2023-07-28T09:09:15;23.60;99.90
7998;DHT22;4044;49.814;7.828;2023-07-28T09:11:48;23.70;99.90
7998;DHT22;4044;49.814;7.828;2023-07-28T09:14:16;23.70;99.90
7998;DHT22;4044;49.814;7.828;2023-07-28T09:16:43;23.70;99.90
7998;DHT22;4044;49.814;7.828;2023-07-28T09:19:09;23.80;99.90
7998;DHT22;4044;49.814;7.828;2023-07-28T09:21:35;24.10;99.90
7998;DHT22;4044;49.814;7.828;2023-07-28T09:24:04;24.10;99.90
7998;DHT22;4044;49.814;7.828;2023-07-28T09:26:40;24.20;99.90
7998;DHT22;4044;49.814;7.828;2023-07-28T09:29:19;24.30;99.90
7998;DHT22;4044;49.814;7.828;2023-07-28T09:31:49;24.50;99.90
7998;DHT22;4044;49.814;7.828;2023-07-28T09:34:28;24.40;99.90
7998;DHT22;4044;49.814;7.828;2023-07-28T09:36:57;24.40;99.90
7998;DHT22;4044;49.814;7.828;2023-07-28T09:39:24;24.70;99.90
7998;DHT22;4044;49.814;7.828;2023-07-28T09:41:49;24.90;99.90
7998;DHT22;4044;49.814;7.828;2023-07-28T09:44:15;25.30;99.90
7998;DHT22;4044;49.814;7.828;2023-07-28T09:46:52;25.40;99.90
7998;DHT22;4044;49.814;7.828;2023-07-28T09:49:27;25.40;99.90
7998;DHT22;4044;49.814;7.828;2023-07-28T09:51:54;25.40;99.90
7998;DHT22;4044;49.814;7.828;2023-07-28T09:54:28;25.40;99.90
7998;DHT22;4044;49.814;7.828;2023-07-28T09:56:59;25.70;99.90
7998;DHT22;4044;49.814;7.828;2023-07-28T09:59:42;25.70;99.90
7998;DHT22;4044;49.814;7.828;2023-07-28T10:02:10;25.30;99.90
7998;DHT22;4044;49.814;7.828;2023-07-28T10:04:36;25.10;99.90
7998;DHT22;4044;49.814;7.828;2023-07-28T10:07:04;25.10;99.90
7998;DHT22;4044;49.814;7.828;2023-07-28T10:09:30;25.20;99.90
7998;DHT22;4044;49.814;7.828;2023-07-28T10:11:56;24.90;99.90
7998;DHT22;4044;49.814;7.828;2023-07-28T10:14:29;25.10;99.90
7998;DHT22;4044;49.814;7.828;2023-07-28T10:16:57;25.10;99.90
7998;DHT22;4044;49.814;7.828;2023-07-28T10:19:26;25.20;99.90
7998;DHT22;4044;49.814;7.828;2023-07-28T10:22:08;25.00;99.90
7998;DHT22;4044;49.814;7.828;2023-07-28T10:25:10;24.60;99.90
7998;DHT22;4044;49.814;7.828;2023-07-28T10:27:37;24.60;99.90
7998;DHT22;4044;49.814;7.828;2023-07-28T10:30:09;24.60;99.90
7998;DHT22;4044;49.814;7.828;2023-07-28T10:32:38;24.70;99.90
7998;DHT22;4044;49.814;7.828;2023-07-28T10:37:44;24.70;99.90
7998;DHT22;4044;49.814;7.828;2023-07-28T10:40:31;24.90;99.90
7998;DHT22;4044;49.814;7.828;2023-07-28T10:42:59;25.10;99.90
7998;DHT22;4044;49.814;7.828;2023-07-28T10:45:26;25.40;99.90
7998;DHT22;4044;49.814;7.828;2023-07-28T10:47:53;25.60;99.90
7998;DHT22;4044;49.814;7.828;2023-07-28T10:50:28;25.60;99.90
7998;DHT22;4044;49.814;7.828;2023-07-28T10:52:54;25.30;99.90
7998;DHT22;4044;49.814;7.828;2023-07-28T10:55:22;25.10;99.90
7998;DHT22;4044;49.814;7.828;2023-07-28T10:57:49;25.30;99.90
7998;DHT22;4044;49.814;7.828;2023-07-28T11:00:17;25.50;99.90
7998;DHT22;4044;49.814;7.828;2023-07-28T11:02:51;25.60;99.90
7998;DHT22;4044;49.814;7.828;2023-07-28T11:05:21;25.70;99.90
7998;DHT22;4044;49.814;7.828;2023-07-28T11:07:51;25.60;99.90
7998;DHT22;4044;49.814;7.828;2023-07-28T11:10:18;25.30;99.90
7998;DHT22;4044;49.814;7.828;2023-07-28T11:12:48;25.10;99.90
7998;DHT22;4044;49.814;7.828;2023-07-28T11:15:15;25.10;99.90
7998;DHT22;4044;49.814;7.828;2023-07-28T11:17:48;24.90;99.90
7998;DHT22;4044;49.814;7.828;2023-07-28T11:20:28;24.80;99.90
7998;DHT22;4044;49.814;7.828;2023-07-28T11:22:59;24.50;99.90
7998;DHT22;4044;49.814;7.828;2023-07-28T11:25:27;24.50;99.90
7998;DHT22;4044;49.814;7.828;2023-07-28T11:27:53;24.30;99.90
7998;DHT22;4044;49.814;7.828;2023-07-28T11:30:21;24.40;99.90
7998;DHT22;4044;49.814;7.828;2023-07-28T11:32:49;24.40;99.90
7998;DHT22;4044;49.814;7.828;2023-07-28T11:35:16;24.30;99.90
7998;DHT22;4044;49.814;7.828;2023-07-28T11:37:44;24.20;99.90
7998;DHT22;4044;49.814;7.828;2023-07-28T11:40:11;24.10;99.90
7998;DHT22;4044;49.814;7.828;2023-07-28T11:42:44;24.20;99.90
7998;DHT22;4044;49.814;7.828;2023-07-28T11:45:12;24.20;99.90
7998;DHT22;4044;49.814;7.828;2023-07-28T11:47:37;24.30;99.90
7998;DHT22;4044;49.814;7.828;2023-07-28T11:50:03;24.70;99.90
7998;DHT22;4044;49.814;7.828;2023-07-28T11:52:34;25.00;99.90
7998;DHT22;4044;49.814;7.828;2023-07-28T11:55:04;25.10;99.90
7998;DHT22;4044;49.814;7.828;2023-07-28T11:57:31;24.90;99.90
7998;DHT22;4044;49.814;7.828;2023-07-28T11:59:57;24.80;99.90
7998;DHT22;4044;49.814;7.828;2023-07-28T12:02:29;24.80;99.90
7998;DHT22;4044;49.814;7.828;2023-07-28T12:04:55;25.30;99.90
7998;DHT22;4044;49.814;7.828;2023-07-28T12:07:31;25.30;99.90
7998;DHT22;4044;49.814;7.828;2023-07-28T12:10:05;25.50;99.90
7998;DHT22;4044;49.814;7.828;2023-07-28T12:12:43;25.40;99.90
7998;DHT22;4044;49.814;7.828;2023-07-28T12:15:22;25.50;99.90
7998;DHT22;4044;49.814;7.828;2023-07-28T12:20:38;25.40;99.90
7998;DHT22;4044;49.814;7.828;2023-07-28T12:23:05;25.40;99.90
7998;DHT22;4044;49.814;7.828;2023-07-28T12:25:30;25.30;99.90
7998;DHT22;4044;49.814;7.828;2023-07-28T12:27:56;25.10;99.90
7998;DHT22;4044;49.814;7.828;2023-07-28T12:30:22;24.90;99.90
7998;DHT22;4044;49.814;7.828;2023-07-28T12:32:47;24.70;99.90
7998;DHT22;4044;49.814;7.828;2023-07-28T12:35:13;24.60;99.90
7998;DHT22;4044;49.814;7.828;2023-07-28T12:37:39;24.60;99.90
7998;DHT22;4044;49.814;7.828;2023-07-28T12:40:05;25.00;99.90
7998;DHT22;4044;49.814;7.828;2023-07-28T12:42:31;25.30;99.90
7998;DHT22;4044;49.814;7.828;2023-07-28T12:44:57;25.50;99.90
7998;DHT22;4044;49.814;7.828;2023-07-28T12:47:23;25.80;99.90
7998;DHT22;4044;49.814;7.828;2023-07-28T12:49:48;26.20;99.90
7998;DHT22;4044;49.814;7.828;2023-07-28T12:52:14;26.60;99.90
7998;DHT22;4044;49.814;7.828;2023-07-28T12:54:40;26.10;99.20
7998;DHT22;4044;49.814;7.828;2023-07-28T12:57:08;26.00;98.60
7998;DHT22;4044;49.814;7.828;2023-07-28T12:59:36;25.60;99.20
7998;DHT22;4044;49.814;7.828;2023-07-28T13:02:01;25.60;99.90
7998;DHT22;4044;49.814;7.828;2023-07-28T13:04:27;25.70;99.60
7998;DHT22;4044;49.814;7.828;2023-07-28T13:06:52;25.40;99.80
7998;DHT22;4044;49.814;7.828;2023-07-28T13:09:18;25.70;99.50
7998;DHT22;4044;49.814;7.828;2023-07-28T13:11:43;25.80;99.30
7998;DHT22;4044;49.814;7.828;2023-07-28T13:14:09;26.10;99.10
7998;DHT22;4044;49.814;7.828;2023-07-28T13:16:34;26.40;98.70
7998;DHT22;4044;49.814;7.828;2023-07-28T13:19:01;26.40;98.80
7998;DHT22;4044;49.814;7.828;2023-07-28T13:21:27;26.50;98.00
7998;DHT22;4044;49.814;7.828;2023-07-28T13:23:52;26.40;98.20
7998;DHT22;4044;49.814;7.828;2023-07-28T13:26:18;26.50;98.10
7998;DHT22;4044;49.814;7.828;2023-07-28T13:28:43;26.30;97.40
7998;DHT22;4044;49.814;7.828;2023-07-28T13:31:13;26.20;98.00
7998;DHT22;4044;49.814;7.828;2023-07-28T13:33:38;26.40;98.20
7998;DHT22;4044;49.814;7.828;2023-07-28T13:36:04;26.60;97.50
7998;DHT22;4044;49.814;7.828;2023-07-28T13:38:32;26.60;96.80
7998;DHT22;4044;49.814;7.828;2023-07-28T13:40:58;26.70;97.70
7998;DHT22;4044;49.814;7.828;2023-07-28T13:43:23;26.60;96.80
7998;DHT22;4044;49.814;7.828;2023-07-28T13:45:49;26.50;96.70
7998;DHT22;4044;49.814;7.828;2023-07-28T13:48:14;26.70;98.40
7998;DHT22;4044;49.814;7.828;2023-07-28T13:50:40;26.50;98.10
7998;DHT22;4044;49.814;7.828;2023-07-28T13:53:05;26.20;97.30
7998;DHT22;4044;49.814;7.828;2023-07-28T13:55:31;26.30;98.20
7998;DHT22;4044;49.814;7.828;2023-07-28T13:57:56;26.40;97.70
7998;DHT22;4044;49.814;7.828;2023-07-28T14:00:22;26.20;97.80
7998;DHT22;4044;49.814;7.828;2023-07-28T14:02:47;26.00;97.50
7998;DHT22;4044;49.814;7.828;2023-07-28T14:05:13;26.10;98.10
7998;DHT22;4044;49.814;7.828;2023-07-28T14:07:38;26.10;97.90
7998;DHT22;4044;49.814;7.828;2023-07-28T14:10:04;26.10;97.50
7998;DHT22;4044;49.814;7.828;2023-07-28T14:12:30;26.30;97.10
7998;DHT22;4044;49.814;7.828;2023-07-28T14:14:55;26.20;98.20
7998;DHT22;4044;49.814;7.828;2023-07-28T14:17:21;26.00;97.90
7998;DHT22;4044;49.814;7.828;2023-07-28T14:19:46;25.90;98.40
7998;DHT22;4044;49.814;7.828;2023-07-28T14:22:12;25.40;97.90
7998;DHT22;4044;49.814;7.828;2023-07-28T14:24:37;25.00;98.80
7998;DHT22;4044;49.814;7.828;2023-07-28T14:27:04;24.80;99.30
7998;DHT22;4044;49.814;7.828;2023-07-28T14:29:29;24.70;99.90
7998;DHT22;4044;49.814;7.828;2023-07-28T14:31:55;24.50;99.80
7998;DHT22;4044;49.814;7.828;2023-07-28T14:34:20;24.20;99.80
7998;DHT22;4044;49.814;7.828;2023-07-28T14:36:46;24.10;99.90
7998;DHT22;4044;49.814;7.828;2023-07-28T14:39:11;24.10;99.90
7998;DHT22;4044;49.814;7.828;2023-07-28T14:41:37;24.10;99.90
7998;DHT22;4044;49.814;7.828;2023-07-28T14:44:03;24.00;99.90
7998;DHT22;4044;49.814;7.828;2023-07-28T14:46:28;24.00;99.90
7998;DHT22;4044;49.814;7.828;2023-07-28T14:48:54;24.00;99.90
7998;DHT22;4044;49.814;7.828;2023-07-28T14:51:21;23.90;99.90
7998;DHT22;4044;49.814;7.828;2023-07-28T14:53:47;24.00;99.90
7998;DHT22;4044;49.814;7.828;2023-07-28T14:56:14;23.80;99.90
7998;DHT22;4044;49.814;7.828;2023-07-28T14:58:40;23.60;99.90
7998;DHT22;4044;49.814;7.828;2023-07-28T15:01:10;23.60;99.90
7998;DHT22;4044;49.814;7.828;2023-07-28T15:03:36;23.50;99.90
7998;DHT22;4044;49.814;7.828;2023-07-28T15:06:02;23.60;99.90
7998;DHT22;4044;49.814;7.828;2023-07-28T15:08:27;23.70;99.90
7998;DHT22;4044;49.814;7.828;2023-07-28T15:10:53;23.90;99.90
7998;DHT22;4044;49.814;7.828;2023-07-28T15:13:19;24.00;99.90
7998;DHT22;4044;49.814;7.828;2023-07-28T15:15:45;24.20;99.90
7998;DHT22;4044;49.814;7.828;2023-07-28T15:18:11;24.20;99.90
7998;DHT22;4044;49.814;7.828;2023-07-28T15:20:39;24.30;99.90
7998;DHT22;4044;49.814;7.828;2023-07-28T15:23:05;24.20;99.90
7998;DHT22;4044;49.814;7.828;2023-07-28T15:25:30;24.00;99.90
7998;DHT22;4044;49.814;7.828;2023-07-28T15:27:56;24.10;99.90
7998;DHT22;4044;49.814;7.828;2023-07-28T15:30:21;24.10;99.90
7998;DHT22;4044;49.814;7.828;2023-07-28T15:32:47;23.80;99.90
7998;DHT22;4044;49.814;7.828;2023-07-28T15:35:12;23.70;99.90
7998;DHT22;4044;49.814;7.828;2023-07-28T15:37:38;23.40;99.90
7998;DHT22;4044;49.814;7.828;2023-07-28T15:40:04;23.50;99.90
7998;DHT22;4044;49.814;7.828;2023-07-28T15:42:30;23.40;99.90
7998;DHT22;4044;49.814;7.828;2023-07-28T15:44:56;23.60;99.90
7998;DHT22;4044;49.814;7.828;2023-07-28T15:47:22;23.70;99.90
7998;DHT22;4044;49.814;7.828;2023-07-28T15:49:47;23.80;99.90
7998;DHT22;4044;49.814;7.828;2023-07-28T15:52:16;23.90;99.90
7998;DHT22;4044;49.814;7.828;2023-07-28T15:54:41;24.00;99.90
7998;DHT22;4044;49.814;7.828;2023-07-28T15:57:07;24.20;99.90
7998;DHT22;4044;49.814;7.828;2023-07-28T15:59:32;24.10;99.90
7998;DHT22;4044;49.814;7.828;2023-07-28T16:01:58;24.20;99.90
7998;DHT22;4044;49.814;7.828;2023-07-28T16:04:23;24.10;99.90